Time;durP1;ratioP1;P1;durP2;ratioP2;P2;SDS_P1;SDS_P2;PMS_P1;PMS_P2;Temp;Humidity;BMP_temperature;BMP_pressure;BME280_temperature;BME280_humidity;BME280_pressure;Samples;Min_cycle;Max_cycle;Signal;HPM_P1;HPM_P2
2022/09/25 00:00:23;;;;;;;3.00;1.30;;;16.00;99.90;;;;;;1034687;28;20068;-70
2022/09/25 00:00:55;;;;;;;2.50;1.37;;;15.90;99.90;;;;;;1035019;28;20021;-71
2022/09/25 00:01:26;;;;;;;3.53;2.10;;;16.00;99.90;;;;;;1034906;28;20014;-70
2022/09/25 00:01:57;;;;;;;2.73;1.33;;;16.00;99.90;;;;;;1034443;28;20021;-70
2022/09/25 00:02:27;;;;;;;4.83;1.47;;;15.90;99.90;;;;;;1034817;28;20546;-70
2022/09/25 00:02:58;;;;;;;1.80;1.20;;;15.90;99.90;;;;;;1034551;28;20085;-70
2022/09/25 00:03:29;;;;;;;3.10;1.47;;;15.90;99.90;;;;;;1034437;28;20755;-70
2022/09/25 00:04:01;;;;;;;3.58;1.38;;;15.90;99.90;;;;;;1038684;28;20582;-70
2022/09/25 00:04:31;;;;;;;1.90;1.20;;;15.90;99.90;;;;;;1038477;28;20540;-70
2022/09/25 00:05:02;;;;;;;1.63;1.10;;;15.90;99.90;;;;;;1038863;28;20685;-69
2022/09/25 00:05:37;;;;;;;2.53;1.17;;;15.90;99.90;;;;;;1034238;28;20528;-70
2022/09/25 00:06:13;;;;;;;4.35;1.63;;;15.90;99.90;;;;;;1030505;28;20025;-71
2022/09/25 00:06:46;;;;;;;2.10;1.40;;;15.90;99.90;;;;;;1030453;28;20018;-70
2022/09/25 00:07:17;;;;;;;2.65;1.38;;;15.80;99.90;;;;;;1034607;28;20526;-70
2022/09/25 00:07:47;;;;;;;2.43;1.40;;;15.90;99.90;;;;;;1034774;28;20109;-69
2022/09/25 00:08:18;;;;;;;1.70;1.10;;;15.90;99.90;;;;;;1034705;28;20022;-69
2022/09/25 00:08:50;;;;;;;2.97;1.60;;;15.90;99.90;;;;;;1034618;28;20021;-69
2022/09/25 00:09:22;;;;;;;2.65;1.27;;;15.90;99.90;;;;;;1030669;28;20056;-69
2022/09/25 00:09:52;;;;;;;3.85;1.50;;;15.90;99.90;;;;;;1030166;28;20014;-70
2022/09/25 00:10:24;;;;;;;3.43;1.30;;;15.90;99.90;;;;;;1033245;28;20022;-68
2022/09/25 00:10:55;;;;;;;3.55;1.55;;;15.80;99.90;;;;;;1034346;28;20017;-69
2022/09/25 00:11:28;;;;;;;4.07;1.33;;;15.80;99.90;;;;;;1035428;28;20014;-68
2022/09/25 00:11:59;;;;;;;6.13;1.70;;;15.80;99.90;;;;;;1034631;28;20248;-68
2022/09/25 00:12:30;;;;;;;2.50;1.60;;;15.80;99.90;;;;;;1034487;28;20025;-68
2022/09/25 00:13:01;;;;;;;3.67;1.40;;;15.80;99.90;;;;;;1034920;28;20105;-68
2022/09/25 00:13:32;;;;;;;3.83;1.60;;;15.80;99.90;;;;;;1033993;28;20018;-68
2022/09/25 00:14:03;;;;;;;2.85;1.52;;;15.80;99.90;;;;;;1034565;28;20069;-69
2022/09/25 00:14:33;;;;;;;4.50;1.90;;;15.80;99.90;;;;;;1034644;28;20065;-69
2022/09/25 00:15:04;;;;;;;2.97;1.23;;;15.80;99.90;;;;;;1034430;28;20019;-69
2022/09/25 00:15:37;;;;;;;3.58;1.60;;;15.80;99.90;;;;;;1034771;28;20072;-68
2022/09/25 00:16:10;;;;;;;3.65;1.42;;;15.80;99.90;;;;;;1030213;28;20517;-68
2022/09/25 00:16:41;;;;;;;2.97;1.33;;;15.80;99.90;;;;;;1027625;28;20019;-69
2022/09/25 00:17:12;;;;;;;2.93;1.17;;;15.70;99.90;;;;;;1028167;28;20023;-68
2022/09/25 00:17:42;;;;;;;1.77;1.13;;;15.80;99.90;;;;;;1031896;28;20117;-68
2022/09/25 00:18:13;;;;;;;2.77;1.20;;;15.80;99.90;;;;;;1031644;28;20057;-68
2022/09/25 00:19:51;;;;;;;1.63;1.08;;;15.80;99.90;;;;;;1035659;28;20363;-69
2022/09/25 00:20:24;;;;;;;3.17;1.42;;;15.80;99.90;;;;;;1039382;28;20476;-69
2022/09/25 00:21:01;;;;;;;3.00;1.85;;;15.70;99.90;;;;;;1039604;28;20055;-68
2022/09/25 00:21:32;;;;;;;2.70;1.55;;;15.70;99.90;;;;;;1035083;28;20025;-68
2022/09/25 00:22:03;;;;;;;3.95;1.50;;;15.70;99.90;;;;;;1034972;28;20134;-68
2022/09/25 00:22:33;;;;;;;2.47;1.27;;;15.70;99.90;;;;;;1033315;28;20022;-69
2022/09/25 00:23:04;;;;;;;2.87;1.40;;;15.70;99.90;;;;;;1035493;28;20034;-68
2022/09/25 00:23:35;;;;;;;1.20;1.00;;;15.70;99.90;;;;;;1035619;28;20524;-68
2022/09/25 00:24:08;;;;;;;2.17;1.57;;;15.70;99.90;;;;;;1035402;28;20606;-69
2022/09/25 00:24:38;;;;;;;4.38;1.83;;;15.70;99.90;;;;;;1035362;28;20053;-68
2022/09/25 00:25:13;;;;;;;3.53;1.77;;;15.70;99.90;;;;;;1035345;28;20024;-69
2022/09/25 00:25:52;;;;;;;3.22;1.30;;;15.70;99.90;;;;;;1035290;28;20022;-69
2022/09/25 00:26:26;;;;;;;3.78;1.35;;;15.70;99.90;;;;;;1037102;28;20041;-69
2022/09/25 00:26:58;;;;;;;4.53;1.25;;;15.70;99.90;;;;;;1039301;28;20076;-69
2022/09/25 00:27:29;;;;;;;3.38;1.60;;;15.70;99.90;;;;;;1039551;28;20025;-69
2022/09/25 00:28:00;;;;;;;2.73;1.63;;;15.70;99.90;;;;;;1035144;28;20069;-68
2022/09/25 00:28:31;;;;;;;3.30;1.40;;;15.60;99.90;;;;;;1035899;28;20026;-69
2022/09/25 00:29:02;;;;;;;1.90;1.37;;;15.70;99.90;;;;;;1035259;28;20658;-68
2022/09/25 00:29:35;;;;;;;2.33;1.70;;;15.70;99.90;;;;;;1035280;28;20256;-69
2022/09/25 00:30:06;;;;;;;1.40;1.15;;;15.70;99.90;;;;;;1035945;28;20029;-68
2022/09/25 00:30:39;;;;;;;1.75;1.30;;;15.70;99.90;;;;;;1034943;28;20477;-69
2022/09/25 00:31:13;;;;;;;2.38;1.40;;;15.60;99.90;;;;;;1035778;28;20722;-68
2022/09/25 00:31:44;;;;;;;2.85;1.10;;;15.70;99.90;;;;;;1035224;28;20049;-69
2022/09/25 00:32:15;;;;;;;2.90;1.20;;;15.70;99.90;;;;;;1036205;28;20025;-68
2022/09/25 00:32:45;;;;;;;2.77;1.27;;;15.70;99.90;;;;;;1039622;28;20022;-69
2022/09/25 00:33:16;;;;;;;2.43;1.30;;;15.70;99.90;;;;;;1035256;28;20022;-68
2022/09/25 00:33:46;;;;;;;4.07;2.13;;;15.70;99.90;;;;;;1035909;28;20022;-69
2022/09/25 00:34:17;;;;;;;2.03;1.10;;;15.70;99.90;;;;;;1035254;28;20104;-69
2022/09/25 00:34:47;;;;;;;3.93;1.40;;;15.70;99.90;;;;;;1035018;28;20055;-69
2022/09/25 00:35:18;;;;;;;2.03;1.27;;;15.70;99.90;;;;;;1035497;28;20021;-68
2022/09/25 00:35:49;;;;;;;5.40;1.70;;;15.70;99.90;;;;;;1035300;28;20465;-68
2022/09/25 00:36:19;;;;;;;3.23;1.47;;;15.70;99.90;;;;;;1035970;28;20745;-68
2022/09/25 00:36:50;;;;;;;4.07;1.53;;;15.70;99.90;;;;;;1039472;28;20515;-68
2022/09/25 00:37:21;;;;;;;2.13;1.20;;;15.70;99.90;;;;;;1039211;28;20018;-68
2022/09/25 00:37:51;;;;;;;2.07;1.40;;;15.70;99.90;;;;;;1035894;28;20014;-69
2022/09/25 00:38:22;;;;;;;2.60;1.47;;;15.70;99.90;;;;;;1035595;28;20037;-68
2022/09/25 00:38:53;;;;;;;2.20;1.43;;;15.70;99.90;;;;;;1036017;28;20002;-70
2022/09/25 00:39:25;;;;;;;3.05;1.60;;;15.70;99.90;;;;;;1035155;28;20618;-68
2022/09/25 00:39:55;;;;;;;3.17;1.55;;;15.70;99.90;;;;;;1035034;28;20010;-68
2022/09/25 00:40:26;;;;;;;2.00;1.43;;;15.70;99.90;;;;;;1035678;28;20010;-69
2022/09/25 00:40:57;;;;;;;3.23;1.70;;;15.70;99.90;;;;;;1035340;28;20022;-69
2022/09/25 00:41:30;;;;;;;2.08;1.40;;;15.60;99.90;;;;;;1035453;28;20018;-71
2022/09/25 00:42:01;;;;;;;2.42;1.50;;;15.60;99.90;;;;;;1035274;28;20029;-68
2022/09/25 00:42:32;;;;;;;4.23;1.60;;;15.60;99.90;;;;;;1035285;28;20041;-69
2022/09/25 00:43:04;;;;;;;3.60;1.48;;;15.60;99.90;;;;;;1035681;28;20041;-69
2022/09/25 00:43:49;;;;;;;3.75;1.40;;;15.60;99.90;;;;;;1035167;28;20545;-69
2022/09/25 00:44:46;;;;;;;2.17;1.13;;;15.60;99.90;;;;;;1036536;28;20020;-69
2022/09/25 00:45:20;;;;;;;;;;;15.60;99.90;;;;;;1035586;28;20032;-69
2022/09/25 00:45:50;;;;;;;3.60;1.75;;;15.60;99.90;;;;;;1035753;28;19912;-69
2022/09/25 00:46:38;;;;;;;3.53;1.30;;;15.60;99.90;;;;;;1035395;28;20040;-70
2022/09/25 00:47:12;;;;;;;2.50;1.42;;;15.60;99.90;;;;;;1037051;28;20021;-69
2022/09/25 00:48:01;;;;;;;3.50;1.52;;;15.50;99.90;;;;;;1035446;28;20041;-70
2022/09/25 00:48:32;;;;;;;2.42;1.50;;;15.50;99.90;;;;;;1035442;28;20147;-69
2022/09/25 00:49:05;;;;;;;3.00;1.40;;;15.50;99.90;;;;;;1035248;28;20731;-69
2022/09/25 00:49:35;;;;;;;6.00;1.55;;;15.50;99.90;;;;;;1035862;28;20022;-69
2022/09/25 00:50:21;;;;;;;2.43;1.53;;;15.50;99.90;;;;;;1035050;28;20061;-69
2022/09/25 00:50:54;;;;;;;2.83;1.50;;;15.50;99.90;;;;;;1035831;28;20018;-69
2022/09/25 00:51:29;;;;;;;1.50;1.17;;;15.50;99.90;;;;;;1035747;28;20026;-68
2022/09/25 00:52:05;;;;;;;3.78;1.30;;;15.50;99.90;;;;;;1035968;28;20017;-69
2022/09/25 00:52:36;;;;;;;2.67;1.30;;;15.50;99.90;;;;;;1035667;28;20105;-69
2022/09/25 00:53:17;;;;;;;3.90;1.37;;;15.50;99.90;;;;;;1035443;28;20014;-70
2022/09/25 00:53:48;;;;;;;2.45;1.67;;;15.50;99.90;;;;;;1031480;28;20092;-69
2022/09/25 00:54:26;;;;;;;3.55;1.48;;;15.50;99.90;;;;;;1031586;28;20015;-68
2022/09/25 00:55:04;;;;;;;5.55;1.63;;;15.50;99.90;;;;;;1036318;28;20018;-68
2022/09/25 00:55:37;;;;;;;1.58;1.20;;;15.50;99.90;;;;;;1039345;28;20029;-69
2022/09/25 00:56:10;;;;;;;3.22;1.50;;;15.50;99.90;;;;;;1039743;28;20408;-69
2022/09/25 00:56:44;;;;;;;2.55;1.50;;;15.50;99.90;;;;;;1037606;28;20017;-69
2022/09/25 00:57:19;;;;;;;2.85;1.30;;;15.50;99.90;;;;;;1035571;28;20173;-68
2022/09/25 00:57:54;;;;;;;3.63;1.40;;;15.40;99.90;;;;;;1035278;28;20025;-68
2022/09/25 00:58:27;;;;;;;2.33;1.50;;;15.50;99.90;;;;;;1035086;28;20041;-69
2022/09/25 00:58:58;;;;;;;3.25;1.60;;;15.50;99.90;;;;;;1035657;28;20014;-68
2022/09/25 00:59:33;;;;;;;4.33;1.63;;;15.50;99.90;;;;;;1035383;28;20025;-69
2022/09/25 01:00:10;;;;;;;3.65;1.33;;;15.50;99.90;;;;;;1036008;28;20026;-69
2022/09/25 01:00:41;;;;;;;2.30;1.30;;;15.40;99.90;;;;;;1035595;28;20022;-70
2022/09/25 01:01:12;;;;;;;2.53;1.40;;;15.40;99.90;;;;;;1036132;28;20067;-69
2022/09/25 01:01:43;;;;;;;3.33;1.50;;;15.40;99.90;;;;;;1035278;28;20308;-69
2022/09/25 01:02:23;;;;;;;2.97;1.60;;;15.40;99.90;;;;;;1035687;28;20030;-69
2022/09/25 01:02:55;;;;;;;3.40;1.70;;;15.40;99.90;;;;;;1035716;28;20033;-68
2022/09/25 01:03:26;;;;;;;2.17;1.13;;;15.40;99.90;;;;;;1036062;28;20014;-69
2022/09/25 01:03:57;;;;;;;4.22;1.50;;;15.40;99.90;;;;;;1040147;28;20025;-69
2022/09/25 01:04:31;;;;;;;2.65;1.40;;;15.40;99.90;;;;;;1039538;28;20116;-70
2022/09/25 01:05:15;;;;;;;3.15;1.50;;;15.40;99.90;;;;;;1040124;28;20032;-69
2022/09/25 01:05:46;;;;;;;3.00;1.70;;;15.40;99.90;;;;;;1039011;28;20120;-69
2022/09/25 01:06:16;;;;;;;1.92;1.50;;;15.40;99.90;;;;;;1039485;28;20013;-71
2022/09/25 01:06:48;;;;;;;3.03;1.40;;;15.40;99.90;;;;;;1038959;28;20346;-69
2022/09/25 01:07:19;;;;;;;2.53;1.38;;;15.40;99.90;;;;;;1035438;28;20018;-69
2022/09/25 01:07:51;;;;;;;2.70;1.40;;;15.40;99.90;;;;;;1035877;28;20362;-69
2022/09/25 01:08:25;;;;;;;6.60;1.85;;;15.40;99.90;;;;;;1035430;28;20022;-69
2022/09/25 01:08:56;;;;;;;4.15;1.50;;;15.40;99.90;;;;;;1039425;28;20021;-71
2022/09/25 01:09:27;;;;;;;3.03;1.30;;;15.40;99.90;;;;;;1039307;28;20010;-70
2022/09/25 01:10:01;;;;;;;2.23;1.40;;;15.40;99.90;;;;;;1039399;28;20480;-70
2022/09/25 01:10:32;;;;;;;3.78;1.77;;;15.40;99.90;;;;;;1039382;28;20009;-69
2022/09/25 01:11:03;;;;;;;2.03;1.30;;;15.40;99.90;;;;;;1039170;28;20021;-69
2022/09/25 01:11:33;;;;;;;2.37;1.20;;;15.40;99.90;;;;;;1039604;28;20105;-71
2022/09/25 01:12:04;;;;;;;1.87;1.30;;;15.40;99.90;;;;;;1038937;28;20144;-70
2022/09/25 01:12:38;;;;;;;2.63;1.30;;;15.50;99.90;;;;;;1039181;28;20070;-70
2022/09/25 01:13:10;;;;;;;2.58;1.35;;;15.50;99.90;;;;;;1035241;28;20018;-71
2022/09/25 01:13:40;;;;;;;3.22;1.58;;;15.50;99.90;;;;;;1035186;28;20022;-68
2022/09/25 01:14:16;;;;;;;2.73;1.53;;;15.50;99.90;;;;;;1034872;28;20021;-69
2022/09/25 01:14:47;;;;;;;2.92;1.48;;;15.50;99.90;;;;;;1035206;28;20025;-70
2022/09/25 01:15:21;;;;;;;3.53;1.55;;;15.50;99.90;;;;;;1035321;28;20014;-69
2022/09/25 01:16:07;;;;;;;3.10;1.42;;;15.50;99.90;;;;;;1035652;28;20016;-70
2022/09/25 01:16:58;;;;;;;2.05;1.45;;;15.40;99.90;;;;;;1035662;28;20022;-69
2022/09/25 01:17:40;;;;;;;2.28;1.30;;;15.40;99.90;;;;;;1035437;28;20014;-69
2022/09/25 01:18:15;;;;;;;3.45;1.30;;;15.40;99.90;;;;;;1035972;28;20091;-69
2022/09/25 01:18:56;;;;;;;2.13;1.40;;;15.40;99.90;;;;;;1035511;28;20764;-69
2022/09/25 01:20:10;;;;;;;1.73;1.33;;;15.40;99.90;;;;;;1035734;28;20025;-69
2022/09/25 01:21:14;;;;;;;3.50;1.45;;;15.40;99.90;;;;;;1034972;28;20080;-72
2022/09/25 01:21:58;;;;;;;3.88;1.35;;;15.40;99.90;;;;;;1034998;28;20018;-70
2022/09/25 01:23:30;;;;;;;4.38;1.90;;;15.40;99.90;;;;;;1039069;28;20032;-69
2022/09/25 01:24:22;;;;;;;2.42;1.52;;;15.30;99.90;;;;;;1031019;28;20014;-68
2022/09/25 01:25:34;;;;;;;2.50;1.50;;;15.30;99.90;;;;;;1035401;28;20037;-68
2022/09/25 01:26:18;;;;;;;3.47;1.77;;;15.30;99.90;;;;;;1033670;28;20723;-69
2022/09/25 01:27:19;;;;;;;2.35;1.38;;;15.30;99.90;;;;;;1034646;28;20026;-69
2022/09/25 01:28:15;;;;;;;2.58;1.40;;;15.30;99.90;;;;;;1034424;28;20126;-69
2022/09/25 01:29:14;;;;;;;4.00;1.50;;;15.30;99.90;;;;;;1037564;28;20013;-70
2022/09/25 01:29:59;;;;;;;2.75;1.48;;;15.30;99.90;;;;;;1038657;28;20449;-69
2022/09/25 01:30:38;;;;;;;2.20;1.33;;;15.20;99.90;;;;;;1037560;28;20756;-69
2022/09/25 01:31:31;;;;;;;2.92;1.70;;;15.30;99.90;;;;;;1036472;28;20075;-72
2022/09/25 01:32:31;;;;;;;3.60;1.55;;;15.20;99.90;;;;;;1039196;28;20029;-69
2022/09/25 01:33:19;;;;;;;3.13;1.50;;;15.20;99.90;;;;;;1039434;28;20064;-69
2022/09/25 01:33:57;;;;;;;2.75;1.65;;;15.20;99.90;;;;;;1038241;28;20473;-69
2022/09/25 01:34:38;;;;;;;2.03;1.30;;;15.20;99.90;;;;;;1035639;28;20021;-70
2022/09/25 01:35:20;;;;;;;4.00;1.73;;;15.20;99.90;;;;;;1039191;28;20511;-69
2022/09/25 01:36:03;;;;;;;1.90;1.58;;;15.20;99.90;;;;;;1030846;28;20636;-69
2022/09/25 01:37:07;;;;;;;2.70;1.40;;;15.20;99.90;;;;;;1034805;28;20120;-70
2022/09/25 01:38:14;;;;;;;2.05;1.42;;;15.20;99.90;;;;;;1030850;28;20096;-69
2022/09/25 01:38:50;;;;;;;2.40;1.60;;;15.20;99.90;;;;;;1035645;28;20022;-68
2022/09/25 01:39:28;;;;;;;2.58;1.42;;;15.20;99.90;;;;;;1035677;28;20018;-69
2022/09/25 01:40:32;;;;;;;2.83;1.60;;;15.10;99.90;;;;;;1035285;28;20150;-69
2022/09/25 01:41:23;;;;;;;2.70;1.65;;;15.10;99.90;;;;;;1032367;28;20086;-69
2022/09/25 01:41:59;;;;;;;2.58;1.50;;;15.10;99.90;;;;;;1035315;28;20064;-69
2022/09/25 01:42:38;;;;;;;1.63;1.20;;;15.10;99.90;;;;;;1037661;28;20156;-69
2022/09/25 01:43:38;;;;;;;1.33;1.10;;;15.10;99.90;;;;;;1035325;28;20121;-69
2022/09/25 01:44:13;;;;;;;1.38;1.23;;;15.10;99.90;;;;;;1033531;28;20296;-68
2022/09/25 01:44:56;;;;;;;1.90;1.27;;;15.10;99.90;;;;;;1035227;28;20032;-68
2022/09/25 01:45:37;;;;;;;2.78;1.45;;;15.10;99.90;;;;;;1035310;28;20057;-68
2022/09/25 01:46:17;;;;;;;2.67;1.38;;;15.10;99.90;;;;;;1031520;28;20014;-69
2022/09/25 01:46:52;;;;;;;2.25;1.40;;;15.10;99.90;;;;;;1034977;28;20018;-69
2022/09/25 01:47:33;;;;;;;2.17;1.13;;;15.10;99.90;;;;;;1035464;28;20026;-69
2022/09/25 01:48:06;;;;;;;1.45;1.23;;;15.10;99.90;;;;;;1035087;28;20014;-69
2022/09/25 01:48:40;;;;;;;2.13;1.55;;;15.10;99.90;;;;;;1039430;28;20157;-69
2022/09/25 01:49:21;;;;;;;2.42;1.55;;;15.10;99.90;;;;;;1037457;28;20033;-69
2022/09/25 01:49:59;;;;;;;1.98;1.50;;;15.10;99.90;;;;;;1036115;28;20081;-68
2022/09/25 01:50:45;;;;;;;4.07;1.42;;;15.20;99.90;;;;;;1039049;28;20024;-68
2022/09/25 01:51:23;;;;;;;2.83;1.60;;;15.10;99.90;;;;;;1031229;28;20023;-68
2022/09/25 01:51:55;;;;;;;4.95;1.67;;;15.10;99.90;;;;;;1038167;28;20017;-68
2022/09/25 01:52:39;;;;;;;1.85;1.27;;;15.20;99.90;;;;;;1036771;28;20572;-69
2022/09/25 01:53:15;;;;;;;4.78;1.30;;;15.20;99.90;;;;;;1035093;28;20172;-69
2022/09/25 01:53:51;;;;;;;3.80;1.80;;;15.20;99.90;;;;;;1039520;28;20029;-69
2022/09/25 01:54:33;;;;;;;2.90;1.67;;;15.20;99.90;;;;;;1039563;28;20048;-68
2022/09/25 01:55:22;;;;;;;2.72;1.48;;;15.10;99.90;;;;;;1037823;28;20018;-69
2022/09/25 01:56:03;;;;;;;3.80;1.73;;;15.20;99.90;;;;;;1034513;28;20033;-68
2022/09/25 01:56:44;;;;;;;2.78;1.50;;;15.20;99.90;;;;;;1030999;28;20509;-69
2022/09/25 01:57:24;;;;;;;2.75;1.75;;;15.20;99.90;;;;;;1034976;28;20544;-69
2022/09/25 01:58:23;;;;;;;1.80;1.38;;;15.10;99.90;;;;;;1031332;28;20025;-69
2022/09/25 01:58:58;;;;;;;1.80;1.35;;;15.10;99.90;;;;;;1030631;28;20409;-68
2022/09/25 01:59:47;;;;;;;2.47;1.30;;;15.10;99.90;;;;;;1035201;28;20393;-68
2022/09/25 02:00:20;;;;;;;2.50;1.30;;;15.10;99.90;;;;;;1038135;28;20024;-68
2022/09/25 02:00:58;;;;;;;2.72;1.60;;;15.10;99.90;;;;;;1039369;28;20439;-68
2022/09/25 02:01:33;;;;;;;1.77;1.50;;;15.10;99.90;;;;;;1031637;28;20546;-69
2022/09/25 02:02:07;;;;;;;2.25;1.52;;;15.10;99.90;;;;;;1038328;28;20615;-68
2022/09/25 02:03:05;;;;;;;2.70;1.55;;;15.10;99.90;;;;;;1039338;28;20028;-69
2022/09/25 02:03:44;;;;;;;3.55;1.55;;;15.10;99.90;;;;;;1037157;28;20026;-68
2022/09/25 02:04:44;;;;;;;2.25;1.33;;;15.10;99.90;;;;;;1039369;28;20057;-69
2022/09/25 02:05:21;;;;;;;1.77;1.20;;;15.10;99.90;;;;;;1034107;28;20069;-68
2022/09/25 02:05:55;;;;;;;2.30;1.40;;;15.10;99.90;;;;;;1038986;28;20036;-69
2022/09/25 02:06:27;;;;;;;3.47;1.70;;;15.10;99.90;;;;;;1034936;28;20026;-70
2022/09/25 02:07:02;;;;;;;2.78;1.48;;;15.10;99.90;;;;;;1036737;28;20034;-69
2022/09/25 02:07:41;;;;;;;2.50;1.20;;;15.00;99.90;;;;;;1038918;28;20024;-69
2022/09/25 02:08:19;;;;;;;2.00;1.15;;;15.00;99.90;;;;;;1031225;28;20077;-70
2022/09/25 02:09:08;;;;;;;2.55;1.60;;;15.00;99.90;;;;;;1033833;28;20417;-69
2022/09/25 02:09:44;;;;;;;3.17;1.35;;;15.00;99.90;;;;;;1034992;28;20046;-69
2022/09/25 02:10:21;;;;;;;3.40;1.40;;;15.00;99.90;;;;;;1035997;28;20022;-68
2022/09/25 02:11:01;;;;;;;2.75;1.40;;;15.00;99.90;;;;;;1039262;28;20017;-70
2022/09/25 02:11:38;;;;;;;1.98;1.40;;;15.00;99.90;;;;;;1035373;28;20022;-69
2022/09/25 02:12:17;;;;;;;5.30;1.40;;;15.00;99.90;;;;;;1035492;28;20103;-69
2022/09/25 02:12:51;;;;;;;1.83;1.45;;;15.00;99.90;;;;;;1034885;28;20037;-69
2022/09/25 02:13:28;;;;;;;3.30;1.90;;;15.00;99.90;;;;;;1035230;28;20018;-69
2022/09/25 02:14:21;;;;;;;1.50;1.40;;;15.00;99.90;;;;;;1034604;28;20695;-68
2022/09/25 02:15:00;;;;;;;3.60;1.50;;;14.90;99.90;;;;;;1030278;28;20505;-69
2022/09/25 02:15:36;;;;;;;2.38;1.50;;;14.90;99.90;;;;;;1030610;28;20022;-70
2022/09/25 02:16:16;;;;;;;4.15;1.60;;;14.90;99.90;;;;;;1033400;28;20021;-69
2022/09/25 02:16:51;;;;;;;2.80;1.30;;;14.90;99.90;;;;;;1037682;28;20005;-70
2022/09/25 02:20:32;;;;;;;2.63;1.50;;;14.90;99.90;;;;;;1035180;28;20049;-69
2022/09/25 02:21:38;;;;;;;1.58;1.17;;;14.90;99.90;;;;;;1035054;28;20021;-70
2022/09/25 02:22:08;;;;;;;2.78;1.95;;;14.90;99.90;;;;;;1030401;28;20020;-71
2022/09/25 02:22:39;;;;;;;2.53;1.37;;;14.90;99.90;;;;;;1033838;28;20006;-69
2022/09/25 02:23:22;;;;;;;1.97;1.33;;;14.90;99.90;;;;;;1034726;28;20653;-69
2022/09/25 02:24:13;;;;;;;2.45;1.30;;;14.90;99.90;;;;;;1036560;28;20061;-70
2022/09/25 02:25:05;;;;;;;2.60;1.48;;;14.80;99.90;;;;;;1034636;28;20384;-69
2022/09/25 02:25:41;;;;;;;2.95;1.30;;;14.90;99.90;;;;;;1034897;28;20019;-70
2022/09/25 02:26:21;;;;;;;2.60;1.40;;;14.90;99.90;;;;;;1035039;28;20661;-69
2022/09/25 02:26:52;;;;;;;1.75;1.20;;;14.90;99.90;;;;;;1034497;28;20666;-69
2022/09/25 02:27:26;;;;;;;3.30;1.50;;;14.90;99.90;;;;;;1034825;28;20569;-71
2022/09/25 02:27:57;;;;;;;2.50;1.40;;;14.90;99.90;;;;;;1034879;28;20663;-69
2022/09/25 02:28:27;;;;;;;2.30;1.57;;;14.90;99.90;;;;;;1034996;28;20675;-69
2022/09/25 02:28:59;;;;;;;1.87;1.20;;;14.90;99.90;;;;;;1035370;28;20065;-70
2022/09/25 02:29:29;;;;;;;2.33;1.58;;;14.90;99.90;;;;;;1034601;28;20156;-68
2022/09/25 02:30:00;;;;;;;3.40;1.70;;;14.90;99.90;;;;;;1035008;28;20568;-71
2022/09/25 02:30:31;;;;;;;1.63;1.27;;;14.90;99.90;;;;;;1034922;28;20036;-70
2022/09/25 02:31:06;;;;;;;1.87;1.23;;;14.90;99.90;;;;;;1035105;28;20475;-68
2022/09/25 02:31:49;;;;;;;3.50;1.40;;;14.90;99.90;;;;;;1038652;28;20120;-68
2022/09/25 02:32:25;;;;;;;2.97;1.67;;;14.90;99.90;;;;;;1038809;28;20017;-69
2022/09/25 02:32:56;;;;;;;2.20;1.42;;;14.90;99.90;;;;;;1034565;28;20014;-69
2022/09/25 02:33:28;;;;;;;1.45;1.23;;;14.90;99.90;;;;;;1034807;28;20411;-69
2022/09/25 02:33:59;;;;;;;2.03;1.52;;;14.90;99.90;;;;;;1034775;28;20041;-68
2022/09/25 02:34:31;;;;;;;2.50;1.33;;;14.90;99.90;;;;;;1034694;28;20114;-69
2022/09/25 02:35:03;;;;;;;2.97;1.60;;;14.90;99.90;;;;;;1034445;28;20035;-68
2022/09/25 02:35:33;;;;;;;2.67;1.13;;;14.90;99.90;;;;;;1034886;28;20014;-69
2022/09/25 02:36:05;;;;;;;5.90;1.50;;;14.90;99.90;;;;;;1034580;28;20018;-69
2022/09/25 02:36:35;;;;;;;2.78;1.25;;;14.90;99.90;;;;;;1034740;28;20025;-69
2022/09/25 02:37:13;;;;;;;2.50;1.23;;;14.90;99.90;;;;;;1034376;28;20029;-70
2022/09/25 02:37:43;;;;;;;1.77;1.38;;;14.90;99.90;;;;;;1034457;28;20052;-69
2022/09/25 02:38:15;;;;;;;3.43;1.50;;;14.90;99.90;;;;;;1034817;28;20048;-69
2022/09/25 02:38:47;;;;;;;3.28;1.35;;;14.90;99.90;;;;;;1036914;28;20099;-69
2022/09/25 02:39:21;;;;;;;1.75;1.10;;;14.90;99.90;;;;;;1034197;28;20571;-68
2022/09/25 02:39:56;;;;;;;3.03;1.80;;;14.90;99.90;;;;;;1033547;28;20084;-69
2022/09/25 02:41:08;;;;;;;2.83;1.52;;;14.80;99.90;;;;;;1032849;28;20021;-70
2022/09/25 02:42:08;;;;;;;3.70;1.75;;;14.80;99.90;;;;;;1034226;28;20784;-69
2022/09/25 02:42:57;;;;;;;1.75;1.27;;;14.80;99.90;;;;;;1036340;28;20033;-68
2022/09/25 02:43:43;;;;;;;3.28;1.30;;;14.80;99.90;;;;;;1039008;28;20400;-69
2022/09/25 02:44:51;;;;;;;2.58;1.30;;;14.80;99.90;;;;;;1037908;28;20489;-68
2022/09/25 02:45:41;;;;;;;2.75;1.30;;;14.80;99.90;;;;;;1035173;28;20033;-69
2022/09/25 02:46:37;;;;;;;1.70;1.17;;;14.80;99.90;;;;;;1035481;28;20029;-69
2022/09/25 02:47:41;;;;;;;2.42;1.35;;;14.80;99.90;;;;;;1035444;28;20109;-69
2022/09/25 02:48:28;;;;;;;2.20;1.58;;;14.80;99.90;;;;;;1035219;28;20389;-68
2022/09/25 02:49:39;;;;;;;2.80;1.27;;;14.80;99.90;;;;;;1038911;28;20489;-68
2022/09/25 02:50:38;;;;;;;2.17;1.65;;;14.70;99.90;;;;;;1038874;28;20491;-69
2022/09/25 02:51:30;;;;;;;2.60;1.35;;;14.70;99.90;;;;;;1035584;28;20080;-69
2022/09/25 02:52:12;;;;;;;2.45;1.38;;;14.70;99.90;;;;;;1036853;28;20492;-68
2022/09/25 02:52:58;;;;;;;3.08;1.60;;;14.70;99.90;;;;;;1039085;28;20025;-68
2022/09/25 02:54:00;;;;;;;2.88;1.42;;;14.70;99.90;;;;;;1038884;28;20453;-69
2022/09/25 02:55:03;;;;;;;2.25;1.52;;;14.70;99.90;;;;;;1035317;28;20029;-68
2022/09/25 02:55:41;;;;;;;1.50;1.40;;;14.70;99.90;;;;;;1034468;28;20026;-70
2022/09/25 02:56:47;;;;;;;2.22;1.40;;;14.70;99.90;;;;;;1035033;28;20016;-69
2022/09/25 02:57:21;;;;;;;1.92;1.40;;;14.70;99.90;;;;;;1032793;28;20090;-69
2022/09/25 02:57:57;;;;;;;2.17;1.60;;;14.70;99.90;;;;;;1035244;28;20020;-68
2022/09/25 02:58:41;;;;;;;2.30;1.48;;;14.70;99.90;;;;;;1038766;28;20073;-68
2022/09/25 02:59:22;;;;;;;2.33;1.48;;;14.70;99.90;;;;;;1035189;28;20061;-69
2022/09/25 02:59:58;;;;;;;2.70;1.40;;;14.70;99.90;;;;;;1034719;28;20388;-68
2022/09/25 03:00:29;;;;;;;1.65;1.30;;;14.60;99.90;;;;;;1035029;28;20018;-69
2022/09/25 03:01:03;;;;;;;2.80;1.73;;;14.60;99.90;;;;;;1034636;28;20057;-69
2022/09/25 03:01:37;;;;;;;1.42;1.15;;;14.60;99.90;;;;;;1035066;28;20469;-69
2022/09/25 03:02:10;;;;;;;2.83;1.63;;;14.70;99.90;;;;;;1034697;28;20109;-68
2022/09/25 03:02:43;;;;;;;3.08;1.35;;;14.70;99.90;;;;;;1034458;28;20105;-70
2022/09/25 03:03:16;;;;;;;2.20;1.20;;;14.70;99.90;;;;;;1034529;28;20018;-68
2022/09/25 03:03:50;;;;;;;4.78;1.40;;;14.70;99.90;;;;;;1031469;28;20109;-69
2022/09/25 03:04:22;;;;;;;2.92;1.52;;;14.70;99.90;;;;;;1034961;28;20029;-72
2022/09/25 03:04:55;;;;;;;2.97;1.60;;;14.60;99.90;;;;;;1034471;28;20024;-68
2022/09/25 03:05:26;;;;;;;3.00;1.60;;;14.70;99.90;;;;;;1035257;28;20032;-68
2022/09/25 03:05:57;;;;;;;2.47;1.50;;;14.70;99.90;;;;;;1035009;28;20029;-68
2022/09/25 03:06:29;;;;;;;2.38;1.50;;;14.70;99.90;;;;;;1034969;28;20091;-68
2022/09/25 03:07:01;;;;;;;2.63;1.50;;;14.70;99.90;;;;;;1035734;28;20080;-68
2022/09/25 03:08:36;;;;;;;2.58;1.40;;;14.70;99.90;;;;;;1034964;28;20021;-69
2022/09/25 03:08:38;;;;;;;2.00;1.33;;;14.70;99.90;;;;;;1035410;28;20037;-68
2022/09/25 03:09:10;;;;;;;1.65;1.42;;;14.70;99.90;;;;;;1035024;28;20602;-68
2022/09/25 03:09:45;;;;;;;2.08;1.40;;;14.70;99.90;;;;;;1035617;28;20076;-69
2022/09/25 03:10:17;;;;;;;2.70;1.42;;;14.70;99.90;;;;;;1034308;28;20104;-68
2022/09/25 03:10:48;;;;;;;3.03;1.40;;;14.70;99.90;;;;;;1034558;28;20072;-69
2022/09/25 03:11:20;;;;;;;1.73;1.40;;;14.70;99.90;;;;;;1034954;28;20028;-68
2022/09/25 03:11:51;;;;;;;2.28;1.65;;;14.70;99.90;;;;;;1034570;28;20013;-71
2022/09/25 03:12:22;;;;;;;3.40;1.90;;;14.70;99.90;;;;;;1035458;28;20021;-69
2022/09/25 03:12:52;;;;;;;2.03;1.33;;;14.70;99.90;;;;;;1034844;28;20026;-68
2022/09/25 03:13:30;;;;;;;5.60;1.70;;;14.70;99.90;;;;;;1035162;28;20021;-69
2022/09/25 03:14:02;;;;;;;2.78;1.63;;;14.70;99.90;;;;;;1034697;28;20022;-69
2022/09/25 03:14:32;;;;;;;2.03;1.30;;;14.70;99.90;;;;;;1035375;28;20037;-68
2022/09/25 03:15:04;;;;;;;1.30;1.17;;;14.70;99.90;;;;;;1034675;28;20052;-68
2022/09/25 03:15:36;;;;;;;2.70;1.50;;;14.70;99.90;;;;;;1034560;28;20017;-68
2022/09/25 03:16:21;;;;;;;1.98;1.30;;;14.70;99.90;;;;;;1034671;28;20078;-69
2022/09/25 03:16:55;;;;;;;2.08;1.48;;;14.70;99.90;;;;;;1034451;28;20101;-69
2022/09/25 03:17:26;;;;;;;2.08;1.40;;;14.70;99.90;;;;;;1035217;28;20010;-68
2022/09/25 03:17:57;;;;;;;2.80;1.42;;;14.70;99.90;;;;;;1034968;28;20025;-68
2022/09/25 03:18:29;;;;;;;2.80;1.55;;;14.70;99.90;;;;;;1038797;28;20033;-69
2022/09/25 03:19:01;;;;;;;3.95;1.70;;;14.70;99.90;;;;;;1038754;28;20010;-69
2022/09/25 03:19:33;;;;;;;3.60;1.63;;;14.70;99.90;;;;;;1038635;28;20592;-69
2022/09/25 03:20:05;;;;;;;3.17;1.60;;;14.70;99.90;;;;;;1038422;28;20020;-69
2022/09/25 03:20:36;;;;;;;2.67;1.58;;;14.70;99.90;;;;;;1035093;28;20025;-69